메인 페이지
METAR-TAF:

METAR-TAF

공항 :

헨더슨, 네바다, 미국

위도: 35-58-35N, 경도: 115-07-58W, 고도: 749m

현재 날씨관측

예보는 59분 전, 15:56시(UTC)에 발표되었습니다.
북북동4kt
온도 17°C
습도 34%
기압 1025 hPa
시정: 16.1km
맑음

METAR: KHND 191556Z 03004KT 10SM CLR 17/01 A3028 RMK AO2 SLP247 T01670006 $

시각: 09:55 (16:55 UTC)

예보

예보는 5 시간 22분 전, 11:33시(UTC)에 발표되었습니다.
예보 대상 시간: 19일 12시부터 20일 12시까지 (UTC)
남남동5kt
시정: 10km
맑음
19일 1600시부터 (UTC)
10kt
시정: 10km
맑음
19일 1900시부터 (UTC)
북북동13kt, 순간 최대 풍속 22kt
시정: 10km
맑음
20일 0200시부터 (UTC)
북동11kt
시정: 10km
맑음

TAF: KHND 191133Z 1912/2012 15005KT P6SM SKC FM191600 01010KT P6SM SKC FM191900 02013G22KT P6SM SKC FM200200 05011KT P6SM SKC

4,000개 이상의 공항 관측 자료 및 예보 (METAR 및 TAF 보고).

지도상에서 검색 가능한 기상관측소가 노란 점과 빨간 점으로 표시되어 있습니다.

기상관측소 명을 보려면 표시 위로 마우스를 이동하세요.

날씨 관측과 예보를 보려면 클릭하세요.

지도 변경 : 확대하려면 엑스 표시가 있는 녹색 버튼, 축소하려면 빼기 표시가 있는 녹색 버튼, 다음 페이지의 지도를 보려면 녹색 화살표를 클릭하세요.


METAR-TAF: